createdAt,value
2019-06-26T00:01:14.061Z,7.23
2019-06-26T00:03:43.917Z,7.23
2019-06-26T00:06:13.983Z,7.23
2019-06-26T00:08:43.884Z,7.17
2019-06-26T00:11:13.790Z,6.90
2019-06-26T00:13:43.719Z,7.17
2019-06-26T00:16:13.620Z,7.33
2019-06-26T00:18:43.745Z,6.70
2019-06-26T00:21:14.019Z,7.67
2019-06-26T00:23:43.914Z,7.33
2019-06-26T00:26:13.893Z,7.97
2019-06-26T00:28:43.739Z,7.10
2019-06-26T00:31:13.570Z,7.30
2019-06-26T00:33:43.493Z,7.40
2019-06-26T00:36:13.404Z,7.77
2019-06-26T00:38:43.377Z,8.20
2019-06-26T00:41:13.231Z,8.33
2019-06-26T00:43:43.220Z,7.10
2019-06-26T00:46:14.188Z,7.57
2019-06-26T00:48:44.114Z,7.57
2019-06-26T00:51:14.101Z,7.83
2019-06-26T00:53:44.069Z,7.37
2019-06-26T00:56:13.904Z,7.53
2019-06-26T00:58:43.816Z,7.70
2019-06-26T01:01:13.638Z,7.70
2019-06-26T01:03:43.594Z,7.33
2019-06-26T01:06:32.429Z,7.13
2019-06-26T01:09:02.423Z,7.70
2019-06-26T01:11:33.882Z,7.30
2019-06-26T01:14:03.878Z,7.27
2019-06-26T01:16:33.867Z,7.77
2019-06-26T01:19:03.828Z,6.87
2019-06-26T01:21:33.830Z,6.90
2019-06-26T01:24:03.724Z,7.13
2019-06-26T01:26:33.634Z,7.50
2019-06-26T01:29:03.623Z,6.47
2019-06-26T01:31:33.539Z,7.10
2019-06-26T01:34:03.504Z,7.03
2019-06-26T01:36:33.751Z,6.77
2019-06-26T01:39:05.029Z,7.10
2019-06-26T01:41:35.217Z,7.10
2019-06-26T01:44:14.618Z,7.67
2019-06-26T01:46:37.985Z,7.17
2019-06-26T01:49:07.904Z,7.37
2019-06-26T01:51:37.829Z,6.73
2019-06-26T01:54:08.868Z,7.50
2019-06-26T01:56:38.695Z,7.60
2019-06-26T01:59:08.531Z,7.30
2019-06-26T02:01:39.417Z,6.83
2019-06-26T02:04:09.433Z,6.87
2019-06-26T02:06:39.328Z,6.73
2019-06-26T02:09:09.243Z,7.37
2019-06-26T02:11:39.074Z,7.27
2019-06-26T02:14:09.056Z,7.83
2019-06-26T02:16:38.953Z,6.97
2019-06-26T02:19:10.179Z,7.27
2019-06-26T02:21:40.160Z,7.63
2019-06-26T02:24:10.096Z,7.13
2019-06-26T02:26:40.071Z,6.93
2019-06-26T02:29:10.070Z,7.00
2019-06-26T02:31:39.971Z,7.37
2019-06-26T02:34:09.894Z,7.37
2019-06-26T02:36:39.808Z,7.50
2019-06-26T02:39:09.775Z,6.90
2019-06-26T02:41:39.771Z,7.20
2019-06-26T02:44:09.611Z,7.03
2019-06-26T02:46:39.592Z,7.10
2019-06-26T02:49:09.435Z,7.17
2019-06-26T02:51:39.259Z,7.00
2019-06-26T02:54:09.267Z,6.70
2019-06-26T02:56:39.177Z,6.50
2019-06-26T02:59:09.094Z,6.73
2019-06-26T03:01:39.018Z,6.97
2019-06-26T03:04:08.999Z,6.70
2019-06-26T03:06:38.870Z,6.57
2019-06-26T03:09:08.844Z,6.67
2019-06-26T03:11:38.765Z,6.90
2019-06-26T03:14:08.659Z,7.37
2019-06-26T03:16:38.586Z,7.07
2019-06-26T03:19:08.512Z,6.70
2019-06-26T03:21:38.364Z,7.00
2019-06-26T03:24:08.346Z,7.07
2019-06-26T03:26:38.175Z,6.97
2019-06-26T03:29:08.006Z,6.93
2019-06-26T03:31:37.931Z,7.20
2019-06-26T03:34:07.830Z,6.80
2019-06-26T03:36:37.827Z,7.10
2019-06-26T03:39:08.725Z,6.77
2019-06-26T03:41:38.627Z,7.43
2019-06-26T03:44:08.543Z,7.00
2019-06-26T03:46:38.450Z,7.77
2019-06-26T03:49:08.273Z,7.27
2019-06-26T03:51:38.212Z,6.70
2019-06-26T03:54:08.109Z,6.90
2019-06-26T03:56:37.948Z,6.97
2019-06-26T03:59:07.861Z,6.97
2019-06-26T04:01:37.695Z,6.90
2019-06-26T04:04:07.590Z,6.60
2019-06-26T04:06:37.458Z,7.07
2019-06-26T04:09:07.668Z,6.60
2019-06-26T04:11:37.509Z,7.07
2019-06-26T04:14:07.486Z,6.90
2019-06-26T04:16:37.301Z,6.33
2019-06-26T04:19:07.189Z,6.27
2019-06-26T04:21:37.027Z,6.40
2019-06-26T04:24:06.855Z,6.90
2019-06-26T04:26:36.735Z,6.93
2019-06-26T04:29:07.286Z,7.10
2019-06-26T04:31:37.203Z,6.80
2019-06-26T04:34:07.108Z,6.30
2019-06-26T04:36:36.944Z,5.87
2019-06-26T04:39:07.818Z,6.50
2019-06-26T04:41:37.743Z,5.87
2019-06-26T04:44:07.648Z,5.43
2019-06-26T04:46:37.509Z,5.73
2019-06-26T04:49:07.397Z,5.43
2019-06-26T04:51:37.235Z,5.20
2019-06-26T04:54:07.150Z,5.30
2019-06-26T04:56:37.007Z,5.40
2019-06-26T04:59:06.836Z,5.47
2019-06-26T05:01:36.754Z,5.27
2019-06-26T05:04:06.600Z,5.60
2019-06-26T05:06:36.474Z,5.30
2019-06-26T05:09:08.141Z,5.23
2019-06-26T05:11:37.976Z,5.37
2019-06-26T05:14:08.075Z,5.17
2019-06-26T05:16:37.898Z,5.40
2019-06-26T05:19:08.780Z,5.10
2019-06-26T05:21:38.688Z,4.80
2019-06-26T05:24:08.704Z,4.80
2019-06-26T05:26:38.710Z,5.10
2019-06-26T05:29:08.610Z,5.17
2019-06-26T05:31:38.523Z,5.90
2019-06-26T05:34:10.934Z,5.73
2019-06-26T05:36:40.157Z,5.23
2019-06-26T05:39:10.170Z,4.90
2019-06-26T05:41:40.025Z,5.20
2019-06-26T05:44:10.055Z,5.27
2019-06-26T05:46:40.137Z,5.37
2019-06-26T05:49:10.335Z,5.70
2019-06-26T05:51:40.282Z,5.00
2019-06-26T05:54:10.118Z,5.10
2019-06-26T05:56:39.962Z,4.90
2019-06-26T05:59:09.856Z,5.30
2019-06-26T06:01:39.848Z,5.63
2019-06-26T06:04:09.859Z,4.73
2019-06-26T06:06:42.179Z,5.37
2019-06-26T06:09:11.574Z,5.17
2019-06-26T06:11:41.383Z,5.03
2019-06-26T06:14:11.254Z,6.67
2019-06-26T06:16:47.335Z,6.00
2019-06-26T06:19:13.880Z,5.17
2019-06-26T06:21:43.852Z,5.33
2019-06-26T06:24:13.686Z,5.30
2019-06-26T06:26:43.564Z,5.20
2019-06-26T06:29:13.440Z,4.77
2019-06-26T06:31:43.280Z,5.20
2019-06-26T06:34:13.166Z,5.77
2019-06-26T06:36:43.071Z,5.53
2019-06-26T06:39:12.901Z,5.20
2019-06-26T06:41:43.546Z,5.50
2019-06-26T06:44:13.614Z,5.53
2019-06-26T06:46:43.503Z,6.07
2019-06-26T06:49:13.413Z,5.40
2019-06-26T06:51:43.398Z,5.53
2019-06-26T06:54:14.398Z,5.40
2019-06-26T06:56:44.220Z,5.90
2019-06-26T06:59:14.049Z,4.80
2019-06-26T07:01:44.072Z,5.00
2019-06-26T07:04:13.925Z,5.73
2019-06-26T07:06:43.744Z,5.43
2019-06-26T07:09:13.682Z,4.90
2019-06-26T07:11:43.593Z,5.10
2019-06-26T07:14:13.594Z,5.70
2019-06-26T07:16:43.542Z,5.80
2019-06-26T07:19:13.523Z,5.93
2019-06-26T07:21:44.649Z,5.10
2019-06-26T07:24:14.635Z,5.57
2019-06-26T07:26:44.491Z,5.40
2019-06-26T07:29:14.406Z,5.33
2019-06-26T07:31:44.230Z,5.67
2019-06-26T07:34:14.115Z,5.60
2019-06-26T07:36:44.039Z,5.50
2019-06-26T07:39:13.978Z,5.43
2019-06-26T07:41:43.885Z,5.33
2019-06-26T07:44:13.780Z,5.43
2019-06-26T07:46:43.608Z,5.83
2019-06-26T07:49:13.589Z,5.50
2019-06-26T07:51:43.430Z,5.67
2019-06-26T07:54:13.331Z,5.23
2019-06-26T07:56:43.177Z,5.60
2019-06-26T07:59:13.141Z,5.37
2019-06-26T08:01:43.037Z,6.10
2019-06-26T08:04:12.945Z,5.37
2019-06-26T08:06:42.776Z,6.17
2019-06-26T08:09:12.631Z,6.27
2019-06-26T08:11:42.497Z,5.33
2019-06-26T08:14:12.474Z,5.63
2019-06-26T08:16:42.364Z,5.57
2019-06-26T08:19:12.370Z,5.13
2019-06-26T08:21:42.236Z,5.90
2019-06-26T08:24:12.140Z,5.27
2019-06-26T08:26:42.012Z,5.53
2019-06-26T08:29:12.000Z,4.70
2019-06-26T08:31:41.914Z,5.60
2019-06-26T08:34:11.806Z,5.60
2019-06-26T08:36:41.800Z,5.07
2019-06-26T08:39:12.702Z,5.40
2019-06-26T08:41:42.615Z,4.80
2019-06-26T08:44:12.526Z,5.13
2019-06-26T08:46:42.385Z,5.13
2019-06-26T08:49:24.857Z,5.30
2019-06-26T08:51:44.098Z,5.00
2019-06-26T08:54:13.971Z,6.10
2019-06-26T08:56:43.868Z,5.10
2019-06-26T08:59:13.681Z,5.50
2019-06-26T09:01:43.675Z,5.10
2019-06-26T09:04:15.089Z,5.13
2019-06-26T09:06:44.892Z,5.10
2019-06-26T09:09:14.750Z,5.47
2019-06-26T09:11:44.690Z,5.80
2019-06-26T09:14:14.602Z,5.43
2019-06-26T09:16:45.783Z,5.40
2019-06-26T09:19:15.597Z,5.53
2019-06-26T09:21:45.569Z,5.43
2019-06-26T09:24:15.419Z,5.40
2019-06-26T09:26:45.318Z,4.67
2019-06-26T09:29:15.126Z,5.73
2019-06-26T09:31:45.068Z,5.17
2019-06-26T09:34:14.923Z,5.77
2019-06-26T09:36:45.010Z,5.70
2019-06-26T09:39:14.882Z,5.37
2019-06-26T09:41:44.823Z,5.13
2019-06-26T09:44:14.728Z,4.77
2019-06-26T09:46:44.727Z,5.10
2019-06-26T09:49:14.643Z,5.03
2019-06-26T09:51:44.466Z,5.03
2019-06-26T09:54:14.304Z,4.63
2019-06-26T09:56:44.150Z,5.03
2019-06-26T09:59:13.956Z,5.03
2019-06-26T10:01:43.854Z,4.93
2019-06-26T10:04:13.950Z,5.20
2019-06-26T10:06:43.995Z,4.50
2019-06-26T10:09:13.881Z,4.57
2019-06-26T10:11:43.791Z,4.60
2019-06-26T10:14:13.747Z,4.70
2019-06-26T10:16:43.612Z,4.17
2019-06-26T10:19:13.439Z,5.23
2019-06-26T10:21:43.331Z,5.17
2019-06-26T10:24:13.159Z,4.77
2019-06-26T10:26:43.155Z,4.53
2019-06-26T10:29:13.075Z,4.53
2019-06-26T10:31:43.068Z,4.57
2019-06-26T10:34:13.054Z,4.57
2019-06-26T10:36:42.954Z,4.83
2019-06-26T10:39:12.870Z,4.90
2019-06-26T10:41:42.940Z,4.77
2019-06-26T10:44:12.854Z,4.60
2019-06-26T10:46:42.804Z,4.70
2019-06-26T10:49:25.770Z,5.30
2019-06-26T10:51:44.255Z,4.93
2019-06-26T10:54:14.069Z,4.83
2019-06-26T10:56:44.204Z,4.80
2019-06-26T10:59:14.150Z,4.53
2019-06-26T11:01:44.116Z,4.80
2019-06-26T11:04:14.009Z,5.50
2019-06-26T11:06:43.947Z,5.20
2019-06-26T11:09:13.845Z,5.57
2019-06-26T11:11:43.791Z,5.20
2019-06-26T11:14:13.793Z,5.10
2019-06-26T11:16:43.784Z,5.20
2019-06-26T11:19:13.621Z,5.70
2019-06-26T11:21:43.735Z,4.93
2019-06-26T11:24:13.638Z,4.63
2019-06-26T11:26:43.637Z,4.83
2019-06-26T11:29:13.547Z,5.00
2019-06-26T11:31:43.602Z,5.10
2019-06-26T11:34:13.414Z,5.17
2019-06-26T11:36:43.538Z,5.77
2019-06-26T11:39:13.543Z,5.50
2019-06-26T11:41:43.690Z,5.13
2019-06-26T11:44:13.760Z,5.00
2019-06-26T11:46:43.671Z,4.83
2019-06-26T11:49:13.642Z,5.03
2019-06-26T11:51:43.490Z,4.93
2019-06-26T11:54:13.394Z,5.07
2019-06-26T11:56:43.288Z,5.30
2019-06-26T11:59:14.086Z,5.40
2019-06-26T12:01:43.905Z,5.73
2019-06-26T12:04:13.899Z,5.57
2019-06-26T12:06:46.136Z,5.60
2019-06-26T12:09:15.472Z,5.30
2019-06-26T12:11:45.397Z,5.73
2019-06-26T12:14:15.316Z,5.43
2019-06-26T12:16:45.182Z,6.60
2019-06-26T12:19:18.659Z,5.97
2019-06-26T12:21:46.611Z,6.27
2019-06-26T12:24:16.436Z,6.60
2019-06-26T12:26:46.342Z,5.67
2019-06-26T12:29:16.232Z,5.43
2019-06-26T12:31:46.149Z,5.60
2019-06-26T12:34:15.982Z,5.50
2019-06-26T12:36:46.077Z,5.77
2019-06-26T12:39:15.984Z,6.30
2019-06-26T12:41:45.871Z,6.63
2019-06-26T12:44:15.771Z,5.47
2019-06-26T12:46:45.677Z,6.10
2019-06-26T12:49:15.618Z,5.93
2019-06-26T12:51:45.517Z,5.83
2019-06-26T12:54:15.368Z,5.97
2019-06-26T12:56:45.265Z,6.60
2019-06-26T12:59:15.146Z,6.07
2019-06-26T13:01:45.062Z,6.83
2019-06-26T13:04:15.049Z,5.93
2019-06-26T13:06:45.036Z,6.00
2019-06-26T13:09:14.957Z,6.33
2019-06-26T13:11:44.928Z,6.30
2019-06-26T13:14:14.786Z,5.80
2019-06-26T13:16:44.686Z,5.93
2019-06-26T13:19:14.699Z,6.30
2019-06-26T13:21:44.692Z,5.77
2019-06-26T13:24:14.513Z,5.70
2019-06-26T13:26:44.421Z,6.03
2019-06-26T13:29:15.307Z,6.43
2019-06-26T13:31:45.225Z,6.67
2019-06-26T13:34:15.067Z,7.03
2019-06-26T13:36:45.044Z,6.17
2019-06-26T13:39:15.043Z,6.30
2019-06-26T13:41:44.862Z,5.93
2019-06-26T13:44:14.781Z,6.70
2019-06-26T13:46:44.616Z,6.27
2019-06-26T13:49:16.632Z,6.13
2019-06-26T13:51:46.097Z,5.90
2019-06-26T13:54:16.051Z,6.23
2019-06-26T13:56:46.022Z,5.53
2019-06-26T13:59:15.927Z,5.87
2019-06-26T14:01:45.878Z,6.30
2019-06-26T14:04:15.763Z,6.10
2019-06-26T14:06:45.737Z,5.87
2019-06-26T14:09:16.650Z,5.63
2019-06-26T14:11:46.555Z,5.70
2019-06-26T14:14:16.550Z,5.70
2019-06-26T14:16:46.749Z,5.70
2019-06-26T14:19:16.783Z,6.17
2019-06-26T14:21:46.595Z,5.47
2019-06-26T14:24:16.417Z,5.77
2019-06-26T14:26:46.425Z,5.53
2019-06-26T14:29:20.896Z,5.37
2019-06-26T14:31:47.930Z,5.93
2019-06-26T14:34:17.750Z,5.60
2019-06-26T14:36:47.583Z,5.43
2019-06-26T14:39:17.495Z,5.17
2019-06-26T14:41:47.443Z,5.27
2019-06-26T14:44:17.393Z,5.50
2019-06-26T14:46:47.852Z,5.30
2019-06-26T14:49:17.688Z,5.27
2019-06-26T14:51:48.110Z,5.87
2019-06-26T14:54:18.233Z,5.20
2019-06-26T14:56:48.062Z,5.47
2019-06-26T14:59:17.957Z,5.33
2019-06-26T15:01:47.811Z,5.63
2019-06-26T15:04:17.720Z,5.17
2019-06-26T15:06:47.701Z,5.60
2019-06-26T15:09:17.731Z,5.90
2019-06-26T15:11:47.709Z,5.30
2019-06-26T15:14:17.578Z,5.63
2019-06-26T15:16:47.581Z,5.70
2019-06-26T15:19:17.424Z,5.57
2019-06-26T15:21:57.769Z,5.10
2019-06-26T15:24:18.803Z,5.60
2019-06-26T15:26:48.794Z,5.17
2019-06-26T15:29:18.697Z,5.23
2019-06-26T15:31:48.601Z,5.57
2019-06-26T15:34:18.439Z,5.43
2019-06-26T15:36:48.260Z,5.47
2019-06-26T15:39:18.199Z,4.70
2019-06-26T15:41:48.023Z,5.07
2019-06-26T15:44:17.947Z,5.27
2019-06-26T15:46:47.946Z,5.10
2019-06-26T15:49:17.930Z,5.10
2019-06-26T15:51:47.962Z,5.37
2019-06-26T15:54:17.883Z,5.37
2019-06-26T15:56:47.713Z,5.33
2019-06-26T15:59:17.636Z,5.30
2019-06-26T16:01:47.532Z,5.50
2019-06-26T16:04:17.459Z,5.30
2019-06-26T16:06:47.375Z,4.80
2019-06-26T16:09:18.360Z,5.40
2019-06-26T16:11:48.282Z,5.20
2019-06-26T16:14:19.213Z,5.30
2019-06-26T16:16:50.782Z,5.10
2019-06-26T16:19:21.439Z,5.00
2019-06-26T16:21:51.314Z,5.20
2019-06-26T16:24:21.227Z,4.93
2019-06-26T16:26:51.203Z,5.50
2019-06-26T16:29:21.134Z,5.73
2019-06-26T16:31:50.972Z,5.90
2019-06-26T16:34:20.888Z,5.23
2019-06-26T16:36:50.719Z,5.70
2019-06-26T16:39:22.389Z,4.97
2019-06-26T16:41:52.512Z,5.70
2019-06-26T16:44:23.536Z,5.23
2019-06-26T16:46:53.366Z,5.53
2019-06-26T16:49:23.225Z,5.70
2019-06-26T16:51:53.133Z,5.57
2019-06-26T16:54:23.033Z,5.70
2019-06-26T16:56:53.019Z,5.17
2019-06-26T16:59:22.973Z,6.37
2019-06-26T17:01:53.088Z,5.50
2019-06-26T17:04:22.944Z,5.60
2019-06-26T17:06:52.882Z,6.07
2019-06-26T17:09:22.857Z,5.20
2019-06-26T17:11:52.772Z,5.73
2019-06-26T17:14:23.378Z,5.60
2019-06-26T17:16:53.294Z,5.30
2019-06-26T17:19:24.128Z,5.30
2019-06-26T17:21:54.140Z,5.20
2019-06-26T17:24:23.988Z,5.20
2019-06-26T17:26:55.011Z,5.13
2019-06-26T17:29:24.911Z,5.20
2019-06-26T17:31:54.821Z,5.13
2019-06-26T17:34:27.144Z,5.60
2019-06-26T17:36:56.249Z,5.23
2019-06-26T17:39:26.153Z,5.17
2019-06-26T17:41:56.213Z,5.30
2019-06-26T17:44:26.209Z,5.60
2019-06-26T17:46:56.079Z,5.50
2019-06-26T17:49:26.052Z,5.43
2019-06-26T17:51:55.999Z,5.83
2019-06-26T17:54:26.911Z,5.30
2019-06-26T17:56:56.892Z,5.30
2019-06-26T17:59:26.748Z,5.30
2019-06-26T18:01:56.828Z,5.57
2019-06-26T18:04:26.772Z,5.00
2019-06-26T18:06:56.681Z,5.33
2019-06-26T18:09:26.696Z,6.20
2019-06-26T18:11:56.697Z,5.03
2019-06-26T18:14:26.712Z,5.13
2019-06-26T18:16:56.536Z,6.60
2019-06-26T18:19:26.580Z,5.57
2019-06-26T18:21:56.417Z,5.47
2019-06-26T18:24:26.322Z,4.97
2019-06-26T18:26:56.412Z,5.30
2019-06-26T18:29:26.316Z,5.63
2019-06-26T18:31:56.320Z,5.70
2019-06-26T18:34:26.235Z,5.30
2019-06-26T18:36:56.138Z,5.77
2019-06-26T18:39:25.978Z,6.33
2019-06-26T18:41:55.809Z,5.83
2019-06-26T18:44:25.726Z,6.03
2019-06-26T18:46:55.643Z,6.10
2019-06-26T18:49:25.633Z,6.00
2019-06-26T18:51:55.544Z,6.40
2019-06-26T18:54:25.522Z,5.73
2019-06-26T18:56:55.420Z,5.50
2019-06-26T18:59:25.319Z,6.03
2019-06-26T19:01:55.256Z,6.50
2019-06-26T19:04:25.266Z,6.33
2019-06-26T19:06:55.114Z,6.50
2019-06-26T19:09:25.019Z,6.70
2019-06-26T19:11:54.983Z,6.97
2019-06-26T19:14:25.224Z,7.03
2019-06-26T19:16:55.383Z,7.10
2019-06-26T19:19:25.467Z,6.70
2019-06-26T19:21:55.483Z,7.10
2019-06-26T19:24:25.332Z,7.00
2019-06-26T19:26:55.481Z,6.93
2019-06-26T19:29:25.575Z,6.90
2019-06-26T19:31:55.615Z,7.17
2019-06-26T19:34:25.546Z,6.77
2019-06-26T19:36:55.550Z,6.77
2019-06-26T19:39:25.594Z,6.37
2019-06-26T19:41:55.591Z,6.57
2019-06-26T19:44:25.629Z,6.97
2019-06-26T19:46:55.607Z,7.17
2019-06-26T19:49:25.597Z,6.90
2019-06-26T19:51:55.521Z,7.37
2019-06-26T19:54:31.049Z,7.73
2019-06-26T19:56:58.005Z,6.90
2019-06-26T19:59:28.004Z,7.23
2019-06-26T20:01:57.986Z,7.37
2019-06-26T20:04:27.977Z,7.30
2019-06-26T20:06:57.837Z,8.17
2019-06-26T20:09:27.812Z,7.77
2019-06-26T20:11:57.760Z,7.87
2019-06-26T20:14:27.790Z,7.70
2019-06-26T20:16:58.030Z,7.33
2019-06-26T20:19:27.948Z,7.80
2019-06-26T20:21:57.815Z,7.60
2019-06-26T20:24:42.763Z,7.83
2019-06-26T20:26:59.568Z,7.90
2019-06-26T20:29:29.412Z,7.30
2019-06-26T20:31:59.330Z,7.87
2019-06-26T20:34:29.445Z,7.87
2019-06-26T20:36:59.560Z,8.10
2019-06-26T20:39:29.446Z,8.53
2019-06-26T20:41:59.475Z,7.87
2019-06-26T20:44:29.517Z,8.33
2019-06-26T20:46:59.384Z,8.50
2019-06-26T20:49:29.273Z,8.10
2019-06-26T20:51:59.162Z,8.10
2019-06-26T20:54:29.014Z,8.07
2019-06-26T20:56:58.865Z,8.40
2019-06-26T20:59:28.787Z,8.37
2019-06-26T21:01:58.689Z,8.43
2019-06-26T21:04:28.612Z,8.30
2019-06-26T21:06:58.533Z,8.23
2019-06-26T21:09:28.352Z,8.40
2019-06-26T21:11:58.181Z,8.33
2019-06-26T21:14:28.150Z,8.00
2019-06-26T21:16:58.074Z,7.63
2019-06-26T21:19:28.028Z,7.93
2019-06-26T21:21:58.010Z,8.17
2019-06-26T21:24:27.944Z,7.93
2019-06-26T21:26:57.880Z,8.43
2019-06-26T21:29:27.810Z,7.90
2019-06-26T21:31:57.648Z,7.77
2019-06-26T21:34:27.475Z,7.63
2019-06-26T21:36:57.311Z,7.70
2019-06-26T21:39:28.299Z,7.97
2019-06-26T21:41:58.208Z,7.67
2019-06-26T21:44:28.157Z,7.60
2019-06-26T21:46:58.927Z,7.90
2019-06-26T21:49:28.769Z,8.07
2019-06-26T21:51:58.753Z,7.33
2019-06-26T21:54:28.593Z,7.77
2019-06-26T21:57:16.523Z,7.77
2019-06-26T22:00:05.805Z,8.20
2019-06-26T22:02:56.784Z,7.73
2019-06-26T22:05:27.172Z,7.50
2019-06-26T22:08:13.815Z,7.50
2019-06-26T22:10:45.374Z,7.50
2019-06-26T22:13:15.786Z,8.40
2019-06-26T22:15:45.928Z,7.73
2019-06-26T22:18:16.028Z,8.07
2019-06-26T22:20:46.018Z,8.40
2019-06-26T22:23:15.868Z,8.00
2019-06-26T22:25:50.844Z,7.80
2019-06-26T22:28:17.553Z,7.70
2019-06-26T22:30:47.456Z,8.10
2019-06-26T22:33:17.465Z,7.00
2019-06-26T22:35:48.580Z,7.13
2019-06-26T22:38:18.670Z,7.87
2019-06-26T22:40:48.654Z,7.50
2019-06-26T22:43:18.673Z,7.50
2019-06-26T22:45:49.203Z,7.40
2019-06-26T22:48:19.149Z,7.00
2019-06-26T22:50:49.208Z,7.63
2019-06-26T22:53:19.197Z,8.23
2019-06-26T22:56:03.531Z,7.13
2019-06-26T22:58:21.888Z,6.77
2019-06-26T23:00:51.729Z,7.07
2019-06-26T23:03:21.630Z,7.40
2019-06-26T23:05:51.659Z,6.90
2019-06-26T23:08:21.476Z,7.67
2019-06-26T23:10:51.386Z,6.70
2019-06-26T23:13:21.375Z,7.20
2019-06-26T23:15:51.950Z,7.07
2019-06-26T23:18:21.951Z,6.97
2019-06-26T23:20:51.778Z,6.80
2019-06-26T23:23:21.783Z,7.13
2019-06-26T23:25:51.687Z,7.43
2019-06-26T23:28:21.591Z,7.30
2019-06-26T23:30:51.507Z,6.90
2019-06-26T23:33:21.366Z,7.30
2019-06-26T23:35:51.702Z,7.00
2019-06-26T23:38:21.905Z,7.43
2019-06-26T23:40:52.138Z,7.40
2019-06-26T23:43:22.001Z,7.10
2019-06-26T23:45:51.976Z,7.00
2019-06-26T23:48:21.827Z,7.23
2019-06-26T23:50:52.806Z,7.17
2019-06-26T23:53:22.717Z,7.60
2019-06-26T23:55:52.563Z,6.50
2019-06-26T23:58:23.601Z,6.90
